createdAt,value
2022-07-27T00:00:17.593Z,17.13
2022-07-27T00:01:17.845Z,17.12
2022-07-27T00:02:17.572Z,17.10
2022-07-27T00:03:17.690Z,17.09
2022-07-27T00:04:17.652Z,17.07
2022-07-27T00:05:17.669Z,17.02
2022-07-27T00:06:17.541Z,17.04
2022-07-27T00:07:17.720Z,17.01
2022-07-27T00:08:17.508Z,16.98
2022-07-27T00:09:17.659Z,16.98
2022-07-27T00:10:17.489Z,16.99
2022-07-27T00:11:17.662Z,16.97
2022-07-27T00:12:17.567Z,16.97
2022-07-27T00:13:17.693Z,16.97
2022-07-27T00:14:17.512Z,16.98
2022-07-27T00:15:17.383Z,16.95
2022-07-27T00:16:17.663Z,16.95
2022-07-27T00:17:17.374Z,16.97
2022-07-27T00:18:17.576Z,16.94
2022-07-27T00:19:17.355Z,16.94
2022-07-27T00:20:17.533Z,16.94
2022-07-27T00:21:17.343Z,16.91
2022-07-27T00:22:17.298Z,16.91
2022-07-27T00:23:17.361Z,16.86
2022-07-27T00:24:17.589Z,16.86
2022-07-27T00:25:17.339Z,16.83
2022-07-27T00:26:17.499Z,16.82
2022-07-27T00:27:17.341Z,16.82
2022-07-27T00:28:17.208Z,16.80
2022-07-27T00:29:17.331Z,16.80
2022-07-27T00:30:17.259Z,16.79
2022-07-27T00:31:17.420Z,16.79
2022-07-27T00:32:17.239Z,16.80
2022-07-27T00:33:17.698Z,16.82
2022-07-27T00:34:17.175Z,16.80
2022-07-27T00:35:17.342Z,16.79
2022-07-27T00:36:17.113Z,16.77
2022-07-27T00:37:17.115Z,16.77
2022-07-27T00:38:17.165Z,16.76
2022-07-27T00:39:17.073Z,16.74
2022-07-27T00:40:17.063Z,16.69
2022-07-27T00:41:17.034Z,16.68
2022-07-27T00:42:17.174Z,16.68
2022-07-27T00:43:17.037Z,16.68
2022-07-27T00:44:17.090Z,16.66
2022-07-27T00:45:17.070Z,16.68
2022-07-27T00:46:17.035Z,16.65
2022-07-27T00:47:17.040Z,16.65
2022-07-27T00:48:16.957Z,16.62
2022-07-27T00:49:17.369Z,16.64
2022-07-27T00:50:16.929Z,16.59
2022-07-27T00:51:17.018Z,16.57
2022-07-27T00:52:16.888Z,16.57
2022-07-27T00:53:17.019Z,16.55
2022-07-27T00:54:16.885Z,16.55
2022-07-27T00:55:16.933Z,16.54
2022-07-27T00:56:16.883Z,16.50
2022-07-27T00:57:16.823Z,16.49
2022-07-27T00:58:16.900Z,16.46
2022-07-27T00:59:17.023Z,16.47
2022-07-27T01:00:16.864Z,16.46
2022-07-27T01:01:17.223Z,16.46
2022-07-27T01:02:19.449Z,16.46
2022-07-27T01:03:16.885Z,16.43
2022-07-27T01:04:16.878Z,16.44
2022-07-27T01:05:16.758Z,16.44
2022-07-27T01:06:16.720Z,16.41
2022-07-27T01:07:16.809Z,16.41
2022-07-27T01:08:16.869Z,16.37
2022-07-27T01:09:16.698Z,16.37
2022-07-27T01:10:16.668Z,16.34
2022-07-27T01:11:16.698Z,16.36
2022-07-27T01:12:16.638Z,16.34
2022-07-27T01:13:16.784Z,16.31
2022-07-27T01:14:16.862Z,16.32
2022-07-27T01:15:16.712Z,16.31
2022-07-27T01:16:16.645Z,16.32
2022-07-27T01:17:16.714Z,16.41
2022-07-27T01:18:16.560Z,16.47
2022-07-27T01:19:16.603Z,16.50
2022-07-27T01:20:16.557Z,16.51
2022-07-27T01:21:16.784Z,16.51
2022-07-27T01:22:16.535Z,16.47
2022-07-27T01:23:16.706Z,16.43
2022-07-27T01:24:16.551Z,16.40
2022-07-27T01:25:16.709Z,16.37
2022-07-27T01:26:16.558Z,16.37
2022-07-27T01:27:16.518Z,16.36
2022-07-27T01:28:16.540Z,16.34
2022-07-27T01:29:16.421Z,16.31
2022-07-27T01:30:16.549Z,16.31
2022-07-27T01:31:16.440Z,16.28
2022-07-27T01:32:16.539Z,16.26
2022-07-27T01:33:16.447Z,16.26
2022-07-27T01:34:16.590Z,16.24
2022-07-27T01:35:16.358Z,16.24
2022-07-27T01:36:16.565Z,16.26
2022-07-27T01:37:16.315Z,16.25
2022-07-27T01:38:16.303Z,16.24
2022-07-27T01:39:16.273Z,16.21
2022-07-27T01:40:16.316Z,16.24
2022-07-27T01:41:16.452Z,16.25
2022-07-27T01:42:16.233Z,16.26
2022-07-27T01:43:16.212Z,16.24
2022-07-27T01:44:16.215Z,16.18
2022-07-27T01:45:16.382Z,16.16
2022-07-27T01:46:16.294Z,16.16
2022-07-27T01:47:16.248Z,16.17
2022-07-27T01:48:16.188Z,16.18
2022-07-27T01:49:16.711Z,16.13
2022-07-27T01:50:16.129Z,16.10
2022-07-27T01:51:16.378Z,16.09
2022-07-27T01:52:16.219Z,16.03
2022-07-27T01:53:16.182Z,16.03
2022-07-27T01:54:16.078Z,16.03
2022-07-27T01:55:16.065Z,15.99
2022-07-27T01:56:16.057Z,15.94
2022-07-27T01:57:16.066Z,15.92
2022-07-27T01:58:16.303Z,15.90
2022-07-27T01:59:17.099Z,15.90
2022-07-27T02:00:16.012Z,15.88
2022-07-27T02:01:16.171Z,15.94
2022-07-27T02:02:15.983Z,15.98
2022-07-27T02:03:16.075Z,15.94
2022-07-27T02:04:16.023Z,15.94
2022-07-27T02:05:16.108Z,15.94
2022-07-27T02:06:15.922Z,15.92
2022-07-27T02:07:16.067Z,15.90
2022-07-27T02:08:15.908Z,15.88
2022-07-27T02:09:16.068Z,15.85
2022-07-27T02:10:15.982Z,15.85
2022-07-27T02:11:15.848Z,15.83
2022-07-27T02:12:15.918Z,15.81
2022-07-27T02:13:22.213Z,15.78
2022-07-27T02:14:15.897Z,15.76
2022-07-27T02:15:15.842Z,15.76
2022-07-27T02:16:17.129Z,15.73
2022-07-27T02:17:15.797Z,15.72
2022-07-27T02:18:35.988Z,15.70
2022-07-27T02:19:16.231Z,15.70
2022-07-27T02:20:15.904Z,15.72
2022-07-27T02:21:15.824Z,15.67
2022-07-27T02:22:15.702Z,15.66
2022-07-27T02:23:15.743Z,15.72
2022-07-27T02:24:15.674Z,15.70
2022-07-27T02:25:15.731Z,15.70
2022-07-27T02:26:15.893Z,15.70
2022-07-27T02:27:15.693Z,15.67
2022-07-27T02:28:15.717Z,15.65
2022-07-27T02:29:15.748Z,15.65
2022-07-27T02:30:17.743Z,15.62
2022-07-27T02:31:15.749Z,15.62
2022-07-27T02:32:15.573Z,15.59
2022-07-27T02:33:15.789Z,15.57
2022-07-27T02:34:15.677Z,15.57
2022-07-27T02:35:18.585Z,15.59
2022-07-27T02:36:15.578Z,15.60
2022-07-27T02:37:15.487Z,15.55
2022-07-27T02:38:15.576Z,15.54
2022-07-27T02:39:15.764Z,15.54
2022-07-27T02:40:15.483Z,15.52
2022-07-27T02:41:15.512Z,15.57
2022-07-27T02:42:15.600Z,15.54
2022-07-27T02:43:15.494Z,15.55
2022-07-27T02:44:15.592Z,15.55
2022-07-27T02:45:15.421Z,15.54
2022-07-27T02:46:15.637Z,15.55
2022-07-27T02:47:15.363Z,15.52
2022-07-27T02:48:15.662Z,15.52
2022-07-27T02:49:15.892Z,15.51
2022-07-27T02:50:15.340Z,15.51
2022-07-27T02:51:15.443Z,15.52
2022-07-27T02:52:15.308Z,15.50
2022-07-27T02:53:15.296Z,15.51
2022-07-27T02:54:15.359Z,15.50
2022-07-27T02:55:15.277Z,15.51
2022-07-27T02:56:15.267Z,15.51
2022-07-27T02:57:15.257Z,15.51
2022-07-27T02:58:15.270Z,15.50
2022-07-27T02:59:15.230Z,15.48
2022-07-27T03:00:15.273Z,15.48
2022-07-27T03:01:15.251Z,15.50
2022-07-27T03:02:15.175Z,15.50
2022-07-27T03:03:15.154Z,15.48
2022-07-27T03:04:15.305Z,15.50
2022-07-27T03:05:15.122Z,15.48
2022-07-27T03:06:15.181Z,15.48
2022-07-27T03:07:15.102Z,15.47
2022-07-27T03:08:15.262Z,15.45
2022-07-27T03:09:15.518Z,15.47
2022-07-27T03:10:15.261Z,15.45
2022-07-27T03:11:15.127Z,15.44
2022-07-27T03:12:15.107Z,15.47
2022-07-27T03:13:15.107Z,15.45
2022-07-27T03:14:15.258Z,15.47
2022-07-27T03:15:15.119Z,15.47
2022-07-27T03:16:15.092Z,15.45
2022-07-27T03:17:15.098Z,15.47
2022-07-27T03:18:15.006Z,15.47
2022-07-27T03:19:15.253Z,15.47
2022-07-27T03:20:14.953Z,15.47
2022-07-27T03:21:14.932Z,15.48
2022-07-27T03:22:14.952Z,15.47
2022-07-27T03:23:15.176Z,15.48
2022-07-27T03:24:14.942Z,15.47
2022-07-27T03:25:15.106Z,15.48
2022-07-27T03:26:14.941Z,15.48
2022-07-27T03:27:15.092Z,15.48
2022-07-27T03:28:14.953Z,15.50
2022-07-27T03:29:14.920Z,15.51
2022-07-27T03:30:14.937Z,15.50
2022-07-27T03:31:14.805Z,15.48
2022-07-27T03:32:14.957Z,15.50
2022-07-27T03:33:14.787Z,15.45
2022-07-27T03:34:14.757Z,15.45
2022-07-27T03:35:14.899Z,15.45
2022-07-27T03:36:14.950Z,15.45
2022-07-27T03:37:14.777Z,15.43
2022-07-27T03:38:14.678Z,15.44
2022-07-27T03:39:15.144Z,15.45
2022-07-27T03:40:14.662Z,15.44
2022-07-27T03:41:14.842Z,15.45
2022-07-27T03:42:14.617Z,15.48
2022-07-27T03:43:14.617Z,15.50
2022-07-27T03:44:14.592Z,15.51
2022-07-27T03:45:14.781Z,15.52
2022-07-27T03:46:14.682Z,15.52
2022-07-27T03:47:14.864Z,15.52
2022-07-27T03:48:14.621Z,15.54
2022-07-27T03:49:15.441Z,15.54
2022-07-27T03:50:14.512Z,15.54
2022-07-27T03:51:14.502Z,15.54
2022-07-27T03:52:17.822Z,15.57
2022-07-27T03:53:14.531Z,15.60
2022-07-27T03:54:14.455Z,15.60
2022-07-27T03:55:14.464Z,15.62
2022-07-27T03:56:14.457Z,15.63
2022-07-27T03:57:14.457Z,15.66
2022-07-27T03:58:14.407Z,15.67
2022-07-27T03:59:15.068Z,15.70
2022-07-27T04:00:14.421Z,15.73
2022-07-27T04:01:14.433Z,15.73
2022-07-27T04:02:14.431Z,15.78
2022-07-27T04:03:14.458Z,15.76
2022-07-27T04:04:14.340Z,15.80
2022-07-27T04:05:14.412Z,15.83
2022-07-27T04:06:14.322Z,15.84
2022-07-27T04:07:14.471Z,15.85
2022-07-27T04:08:14.312Z,15.90
2022-07-27T04:09:14.759Z,15.92
2022-07-27T04:10:14.314Z,15.96
2022-07-27T04:11:14.291Z,15.99
2022-07-27T04:12:14.222Z,16.03
2022-07-27T04:13:14.202Z,16.06
2022-07-27T04:14:14.301Z,16.13
2022-07-27T04:15:14.205Z,16.21
2022-07-27T04:16:14.341Z,16.28
2022-07-27T04:17:55.448Z,16.32
2022-07-27T04:18:14.168Z,16.39
2022-07-27T04:19:14.488Z,16.39
2022-07-27T04:20:14.750Z,16.41
2022-07-27T04:21:14.157Z,16.47
2022-07-27T04:22:14.388Z,16.55
2022-07-27T04:23:14.137Z,16.58
2022-07-27T04:24:14.057Z,16.66
2022-07-27T04:25:14.139Z,16.74
2022-07-27T04:26:14.324Z,16.80
2022-07-27T04:27:14.141Z,16.87
2022-07-27T04:28:14.093Z,16.97
2022-07-27T04:29:19.972Z,17.04
2022-07-27T04:30:13.984Z,17.12
2022-07-27T04:31:14.262Z,17.20
2022-07-27T04:32:13.971Z,17.30
2022-07-27T04:33:14.132Z,17.41
2022-07-27T04:34:14.091Z,17.47
2022-07-27T04:35:14.132Z,17.54
2022-07-27T04:36:13.981Z,17.65
2022-07-27T04:37:14.150Z,17.76
2022-07-27T04:38:13.998Z,17.86
2022-07-27T04:39:14.431Z,17.94
2022-07-27T04:40:13.977Z,18.03
2022-07-27T04:41:13.837Z,18.08
2022-07-27T04:42:13.819Z,18.08
2022-07-27T04:43:13.826Z,18.13
2022-07-27T04:44:13.987Z,18.12
2022-07-27T04:45:13.882Z,18.05
2022-07-27T04:46:15.501Z,18.00
2022-07-27T04:47:13.819Z,17.97
2022-07-27T04:48:14.001Z,18.02
2022-07-27T04:49:14.253Z,18.09
2022-07-27T04:50:13.727Z,18.19
2022-07-27T04:51:13.902Z,18.19
2022-07-27T04:52:13.712Z,18.24
2022-07-27T04:53:13.802Z,18.31
2022-07-27T04:54:13.652Z,18.36
2022-07-27T04:55:13.802Z,18.39
2022-07-27T04:56:13.632Z,18.41
2022-07-27T04:57:13.672Z,18.43
2022-07-27T04:58:13.626Z,18.45
2022-07-27T04:59:13.907Z,18.48
2022-07-27T05:00:13.659Z,18.49
2022-07-27T05:01:13.680Z,18.51
2022-07-27T05:02:13.736Z,18.48
2022-07-27T05:03:13.560Z,18.51
2022-07-27T05:04:13.595Z,18.53
2022-07-27T05:05:13.517Z,18.63
2022-07-27T05:06:13.497Z,18.70
2022-07-27T05:07:13.567Z,18.61
2022-07-27T05:08:13.486Z,18.55
2022-07-27T05:09:13.940Z,18.48
2022-07-27T05:10:19.531Z,18.53
2022-07-27T05:11:13.460Z,18.61
2022-07-27T05:12:13.422Z,18.74
2022-07-27T05:13:13.591Z,18.83
2022-07-27T05:14:13.392Z,18.94
2022-07-27T05:15:13.511Z,18.92
2022-07-27T05:16:13.452Z,19.29
2022-07-27T05:17:13.493Z,19.42
2022-07-27T05:18:13.342Z,19.39
2022-07-27T05:19:14.077Z,19.42
2022-07-27T05:20:13.356Z,19.42
2022-07-27T05:21:13.526Z,19.41
2022-07-27T05:22:13.336Z,19.35
2022-07-27T05:23:13.267Z,19.37
2022-07-27T05:24:13.327Z,19.29
2022-07-27T05:25:13.567Z,19.23
2022-07-27T05:26:13.345Z,19.19
2022-07-27T05:27:13.227Z,19.19
2022-07-27T05:28:13.331Z,19.20
2022-07-27T05:29:13.649Z,19.19
2022-07-27T05:30:13.264Z,19.23
2022-07-27T05:31:13.262Z,19.26
2022-07-27T05:32:13.447Z,19.32
2022-07-27T05:33:13.202Z,19.39
2022-07-27T05:34:13.343Z,19.47
2022-07-27T05:35:13.193Z,19.48
2022-07-27T05:36:13.083Z,19.53
2022-07-27T05:37:13.273Z,19.55
2022-07-27T05:38:13.062Z,19.59
2022-07-27T05:39:13.934Z,19.71
2022-07-27T05:40:13.360Z,19.79
2022-07-27T05:41:13.177Z,19.87
2022-07-27T05:42:13.016Z,19.97
2022-07-27T05:43:13.298Z,20.10
2022-07-27T05:44:13.028Z,20.19
2022-07-27T05:45:13.187Z,20.26
2022-07-27T05:46:13.135Z,20.27
2022-07-27T05:47:12.946Z,20.40
2022-07-27T05:48:12.930Z,20.40
2022-07-27T05:49:13.752Z,20.33
2022-07-27T05:50:13.046Z,20.32
2022-07-27T05:51:13.189Z,20.27
2022-07-27T05:52:13.033Z,20.33
2022-07-27T05:53:12.879Z,20.33
2022-07-27T05:54:13.123Z,20.32
2022-07-27T05:55:12.872Z,20.37
2022-07-27T05:56:13.021Z,20.53
2022-07-27T05:57:12.866Z,20.89
2022-07-27T05:58:13.011Z,21.07
2022-07-27T05:59:13.328Z,21.28
2022-07-27T06:00:13.126Z,21.44
2022-07-27T06:01:12.874Z,21.62
2022-07-27T06:02:13.033Z,21.78
2022-07-27T06:03:12.797Z,22.14
2022-07-27T06:04:14.611Z,23.08
2022-07-27T06:05:15.855Z,23.17
2022-07-27T06:06:12.787Z,23.69
2022-07-27T06:07:12.857Z,23.51
2022-07-27T06:08:12.668Z,23.21
2022-07-27T06:09:13.026Z,22.99
2022-07-27T06:10:12.662Z,22.71
2022-07-27T06:11:12.653Z,22.47
2022-07-27T06:12:12.780Z,22.21
2022-07-27T06:13:12.592Z,22.06
2022-07-27T06:14:12.711Z,21.94
2022-07-27T06:15:12.582Z,21.89
2022-07-27T06:16:12.661Z,21.74
2022-07-27T06:17:12.544Z,21.66
2022-07-27T06:18:12.612Z,21.53
2022-07-27T06:19:13.076Z,21.47
2022-07-27T06:20:12.697Z,21.33
2022-07-27T06:21:12.541Z,21.11
2022-07-27T06:22:12.728Z,21.11
2022-07-27T06:23:12.537Z,21.10
2022-07-27T06:24:12.778Z,21.14
2022-07-27T06:25:12.537Z,21.29
2022-07-27T06:26:12.438Z,21.28
2022-07-27T06:27:12.567Z,21.32
2022-07-27T06:28:12.408Z,21.40
2022-07-27T06:29:12.942Z,21.50
2022-07-27T06:30:12.483Z,21.59
2022-07-27T06:31:12.629Z,21.68
2022-07-27T06:32:12.451Z,21.72
2022-07-27T06:33:12.546Z,21.78
2022-07-27T06:34:12.396Z,21.74
2022-07-27T06:35:12.706Z,21.94
2022-07-27T06:36:12.482Z,23.11
2022-07-27T06:37:12.557Z,23.17
2022-07-27T06:38:12.382Z,23.25
2022-07-27T06:39:12.972Z,23.39
2022-07-27T06:40:12.387Z,23.40
2022-07-27T06:41:12.357Z,23.39
2022-07-27T06:42:12.239Z,23.37
2022-07-27T06:43:12.217Z,23.73
2022-07-27T06:44:12.197Z,23.58
2022-07-27T06:45:12.298Z,23.52
2022-07-27T06:46:12.387Z,23.45
2022-07-27T06:47:12.346Z,23.37
2022-07-27T06:48:12.380Z,23.56
2022-07-27T06:49:12.606Z,23.66
2022-07-27T06:50:12.382Z,23.71
2022-07-27T06:51:12.232Z,25.01
2022-07-27T06:52:12.112Z,25.51
2022-07-27T06:53:12.177Z,26.53
2022-07-27T06:54:12.062Z,26.53
2022-07-27T06:55:12.042Z,26.41
2022-07-27T06:56:12.043Z,26.52
2022-07-27T06:57:12.032Z,27.18
2022-07-27T06:58:12.008Z,27.66
2022-07-27T06:59:12.716Z,28.10
2022-07-27T07:00:12.077Z,28.16
2022-07-27T07:01:12.311Z,27.71
2022-07-27T07:02:12.058Z,27.64
2022-07-27T07:03:12.230Z,27.28
2022-07-27T07:04:12.189Z,27.88
2022-07-27T07:05:11.987Z,28.62
2022-07-27T07:06:11.967Z,27.83
2022-07-27T07:07:11.897Z,27.13
2022-07-27T07:08:12.003Z,26.79
2022-07-27T07:09:12.158Z,26.41
2022-07-27T07:10:11.882Z,25.89
2022-07-27T07:11:11.854Z,25.37
2022-07-27T07:12:11.912Z,24.92
2022-07-27T07:13:11.988Z,24.75
2022-07-27T07:14:11.824Z,24.50
2022-07-27T07:15:11.792Z,24.25
2022-07-27T07:16:12.175Z,23.82
2022-07-27T07:17:11.902Z,23.26
2022-07-27T07:18:11.787Z,23.26
2022-07-27T07:19:12.224Z,23.34
2022-07-27T07:20:11.760Z,23.32
2022-07-27T07:21:11.736Z,23.32
2022-07-27T07:22:11.757Z,23.21
2022-07-27T07:23:11.688Z,23.26
2022-07-27T07:24:11.749Z,23.48
2022-07-27T07:25:11.728Z,23.70
2022-07-27T07:26:11.737Z,24.25
2022-07-27T07:27:11.668Z,24.65
2022-07-27T07:28:11.762Z,24.77
2022-07-27T07:29:11.909Z,25.29
2022-07-27T07:30:11.743Z,26.45
2022-07-27T07:31:12.463Z,26.74
2022-07-27T07:32:11.752Z,27.73
2022-07-27T07:33:11.583Z,28.46
2022-07-27T07:34:11.744Z,29.07
2022-07-27T07:35:11.585Z,28.13
2022-07-27T07:36:14.970Z,28.16
2022-07-27T07:37:11.688Z,27.60
2022-07-27T07:38:11.748Z,27.16
2022-07-27T07:39:11.976Z,26.91
2022-07-27T07:40:41.939Z,27.15
2022-07-27T07:41:11.609Z,27.16
2022-07-27T07:42:11.739Z,27.45
2022-07-27T07:43:11.649Z,27.38
2022-07-27T07:44:11.418Z,27.78
2022-07-27T07:45:11.578Z,27.26
2022-07-27T07:46:11.462Z,26.89
2022-07-27T07:47:11.635Z,26.46
2022-07-27T07:48:11.433Z,25.99
2022-07-27T07:49:11.914Z,25.85
2022-07-27T07:50:11.442Z,25.86
2022-07-27T07:51:11.314Z,25.83
2022-07-27T07:52:11.414Z,25.88
2022-07-27T07:53:11.307Z,25.89
2022-07-27T07:54:11.415Z,25.73
2022-07-27T07:55:11.343Z,25.15
2022-07-27T07:56:11.428Z,25.04
2022-07-27T07:57:11.259Z,25.09
2022-07-27T07:58:11.418Z,25.06
2022-07-27T07:59:11.539Z,25.01
2022-07-27T08:00:11.413Z,25.11
2022-07-27T08:01:11.260Z,25.14
2022-07-27T08:02:11.277Z,25.12
2022-07-27T08:03:11.370Z,24.92
2022-07-27T08:04:11.155Z,24.65
2022-07-27T08:05:11.164Z,24.78
2022-07-27T08:06:11.163Z,25.16
2022-07-27T08:07:11.333Z,25.55
2022-07-27T08:08:11.174Z,25.85
2022-07-27T08:09:11.459Z,25.85
2022-07-27T08:10:11.113Z,25.73
2022-07-27T08:11:11.075Z,25.70
2022-07-27T08:12:11.042Z,25.66
2022-07-27T08:13:11.033Z,25.67
2022-07-27T08:14:11.153Z,25.59
2022-07-27T08:15:11.277Z,25.30
2022-07-27T08:16:11.077Z,25.15
2022-07-27T08:17:10.987Z,25.39
2022-07-27T08:18:10.979Z,25.25
2022-07-27T08:19:11.642Z,25.00
2022-07-27T08:20:11.036Z,25.03
2022-07-27T08:21:10.939Z,25.12
2022-07-27T08:22:11.098Z,25.18
2022-07-27T08:23:10.933Z,25.33
2022-07-27T08:24:10.928Z,25.36
2022-07-27T08:25:11.022Z,25.37
2022-07-27T08:26:10.903Z,25.34
2022-07-27T08:27:10.943Z,25.21
2022-07-27T08:28:10.852Z,25.18
2022-07-27T08:29:13.759Z,25.19
2022-07-27T08:30:11.672Z,25.22
2022-07-27T08:31:14.173Z,25.19
2022-07-27T08:32:10.825Z,24.96
2022-07-27T08:33:10.947Z,25.00
2022-07-27T08:34:10.789Z,25.01
2022-07-27T08:35:10.777Z,25.07
2022-07-27T08:36:10.778Z,25.07
2022-07-27T08:37:15.382Z,25.04
2022-07-27T08:38:10.936Z,25.04
2022-07-27T08:39:19.093Z,25.09
2022-07-27T08:41:10.696Z,24.85
2022-07-27T08:42:10.802Z,24.62
2022-07-27T08:43:10.677Z,24.66
2022-07-27T08:44:10.883Z,24.32
2022-07-27T08:45:10.624Z,24.00
2022-07-27T08:46:10.882Z,23.79
2022-07-27T08:47:10.626Z,23.66
2022-07-27T08:48:10.773Z,23.62
2022-07-27T08:49:11.343Z,23.66
2022-07-27T08:50:10.773Z,23.64
2022-07-27T08:51:10.616Z,23.74
2022-07-27T08:52:10.787Z,23.84
2022-07-27T08:53:10.650Z,23.89
2022-07-27T08:54:10.509Z,23.94
2022-07-27T08:55:10.697Z,24.04
2022-07-27T08:56:10.777Z,24.13
2022-07-27T08:57:10.618Z,24.07
2022-07-27T08:58:10.444Z,24.10
2022-07-27T08:59:11.074Z,24.10
2022-07-27T09:00:10.457Z,24.09
2022-07-27T09:01:10.737Z,24.13
2022-07-27T09:02:10.543Z,24.14
2022-07-27T09:03:16.136Z,24.13
2022-07-27T09:04:10.454Z,24.19
2022-07-27T09:05:10.632Z,24.29
2022-07-27T09:06:10.463Z,24.36
2022-07-27T09:07:10.691Z,24.41
2022-07-27T09:08:10.533Z,24.40
2022-07-27T09:09:10.617Z,24.56
2022-07-27T09:10:10.477Z,24.71
2022-07-27T09:11:10.298Z,24.93
2022-07-27T09:12:10.287Z,25.29
2022-07-27T09:13:10.302Z,25.68
2022-07-27T09:14:10.546Z,26.01
2022-07-27T09:15:10.437Z,26.92
2022-07-27T09:16:19.704Z,27.33
2022-07-27T09:18:12.215Z,27.30
2022-07-27T09:18:17.084Z,27.05
2022-07-27T09:19:10.704Z,27.08
2022-07-27T09:20:14.333Z,27.07
2022-07-27T09:21:10.185Z,27.08
2022-07-27T09:22:10.143Z,27.20
2022-07-27T09:23:10.152Z,27.20
2022-07-27T09:24:23.461Z,27.40
2022-07-27T09:25:10.116Z,27.53
2022-07-27T09:26:27.600Z,27.57
2022-07-27T09:27:10.072Z,27.64
2022-07-27T09:28:10.137Z,27.68
2022-07-27T09:29:10.540Z,27.71
2022-07-27T09:30:10.047Z,27.68
2022-07-27T09:31:10.078Z,27.41
2022-07-27T09:32:10.217Z,27.35
2022-07-27T09:33:09.987Z,27.08
2022-07-27T09:34:10.148Z,26.92
2022-07-27T09:35:09.978Z,27.05
2022-07-27T09:36:10.139Z,27.28
2022-07-27T09:37:09.999Z,27.16
2022-07-27T09:38:10.222Z,26.97
2022-07-27T09:39:09.993Z,27.00
2022-07-27T09:40:09.912Z,27.05
2022-07-27T09:41:09.901Z,27.05
2022-07-27T09:42:09.883Z,26.98
2022-07-27T09:43:52.073Z,26.91
2022-07-27T09:44:34.903Z,26.89
2022-07-27T09:45:09.993Z,26.79
2022-07-27T09:46:10.034Z,26.81
2022-07-27T09:47:10.009Z,26.91
2022-07-27T09:48:09.847Z,26.59
2022-07-27T09:49:10.076Z,26.53
2022-07-27T09:50:09.918Z,26.44
2022-07-27T09:51:55.816Z,26.48
2022-07-27T09:52:09.828Z,26.49
2022-07-27T09:53:40.776Z,26.53
2022-07-27T09:54:10.271Z,26.67
2022-07-27T09:55:09.708Z,26.67
2022-07-27T09:56:09.934Z,26.63
2022-07-27T09:57:09.702Z,26.59
2022-07-27T09:58:15.495Z,26.66
2022-07-27T09:59:09.662Z,26.67
2022-07-27T10:00:09.813Z,26.67
2022-07-27T10:01:09.706Z,26.70
2022-07-27T10:02:10.040Z,26.83
2022-07-27T10:03:09.654Z,26.83
2022-07-27T10:04:10.378Z,27.08
2022-07-27T10:05:09.694Z,27.26
2022-07-27T10:06:09.841Z,27.43
2022-07-27T10:07:13.556Z,27.57
2022-07-27T10:08:09.618Z,27.61
2022-07-27T10:09:09.670Z,27.58
2022-07-27T10:10:09.519Z,27.60
2022-07-27T10:11:09.668Z,27.75
2022-07-27T10:12:09.489Z,28.01
2022-07-27T10:13:09.657Z,28.09
2022-07-27T10:14:10.034Z,28.25
2022-07-27T10:15:09.486Z,28.35
2022-07-27T10:16:09.563Z,28.16
2022-07-27T10:17:09.662Z,27.97
2022-07-27T10:18:09.493Z,27.85
2022-07-27T10:19:09.411Z,27.45
2022-07-27T10:20:09.463Z,27.28
2022-07-27T10:21:09.724Z,27.13
2022-07-27T10:22:09.511Z,27.08
2022-07-27T10:23:09.364Z,27.05
2022-07-27T10:24:09.679Z,26.97
2022-07-27T10:25:09.360Z,26.96
2022-07-27T10:26:09.319Z,26.92
2022-07-27T10:27:09.439Z,27.19
2022-07-27T10:28:09.291Z,27.53
2022-07-27T10:29:09.277Z,27.86
2022-07-27T10:30:09.261Z,28.49
2022-07-27T10:31:09.274Z,28.72
2022-07-27T10:32:09.227Z,28.93
2022-07-27T10:33:09.313Z,29.13
2022-07-27T10:34:09.507Z,29.39
2022-07-27T10:35:09.203Z,29.46
2022-07-27T10:36:13.479Z,29.50
2022-07-27T10:37:09.182Z,28.96
2022-07-27T10:38:09.173Z,28.53
2022-07-27T10:39:09.192Z,28.65
2022-07-27T10:40:09.253Z,29.15
2022-07-27T10:41:09.122Z,29.39
2022-07-27T10:42:09.198Z,29.59
2022-07-27T10:43:09.098Z,29.67
2022-07-27T10:44:09.645Z,29.52
2022-07-27T10:45:09.070Z,29.89
2022-07-27T10:46:09.319Z,30.08
2022-07-27T10:47:09.057Z,30.08
2022-07-27T10:48:09.027Z,29.96
2022-07-27T10:49:09.071Z,29.64
2022-07-27T10:50:09.209Z,29.07
2022-07-27T10:51:09.035Z,29.18
2022-07-27T10:52:09.064Z,29.10
2022-07-27T10:53:11.239Z,29.49
2022-07-27T10:54:12.145Z,29.98
2022-07-27T10:55:09.023Z,30.23
2022-07-27T10:56:09.183Z,30.85
2022-07-27T10:57:09.032Z,31.04
2022-07-27T10:58:08.953Z,31.17
2022-07-27T10:59:09.033Z,31.33
2022-07-27T11:00:13.357Z,31.57
2022-07-27T11:01:09.091Z,31.45
2022-07-27T11:02:08.859Z,31.00
2022-07-27T11:03:08.929Z,30.93
2022-07-27T11:04:09.170Z,30.39
2022-07-27T11:05:18.350Z,29.62
2022-07-27T11:07:27.435Z,29.25
2022-07-27T11:08:36.759Z,29.03
2022-07-27T11:10:08.834Z,28.55
2022-07-27T11:11:08.734Z,28.09
2022-07-27T11:12:08.872Z,28.06
2022-07-27T11:13:10.014Z,27.82
2022-07-27T11:14:08.968Z,27.88
2022-07-27T11:15:08.732Z,27.64
2022-07-27T11:16:23.467Z,27.52
2022-07-27T11:18:08.659Z,27.43
2022-07-27T11:19:08.752Z,27.66
2022-07-27T11:20:08.934Z,27.90
2022-07-27T11:21:08.778Z,28.10
2022-07-27T11:22:27.679Z,28.08
2022-07-27T11:24:08.993Z,28.34
2022-07-27T11:25:08.699Z,28.38
2022-07-27T11:26:08.557Z,28.46
2022-07-27T11:27:17.114Z,28.33
2022-07-27T11:28:08.533Z,28.28
2022-07-27T11:29:08.856Z,28.06
2022-07-27T11:30:08.503Z,27.98
2022-07-27T11:31:08.526Z,28.16
2022-07-27T11:32:08.512Z,28.45
2022-07-27T11:33:08.525Z,28.47
2022-07-27T11:34:08.442Z,28.56
2022-07-27T11:35:11.313Z,28.72
2022-07-27T11:36:08.449Z,28.77
2022-07-27T11:37:08.419Z,28.64
2022-07-27T11:38:08.399Z,28.57
2022-07-27T11:39:14.571Z,28.62
2022-07-27T11:40:48.113Z,28.62
2022-07-27T11:41:15.134Z,28.84
2022-07-27T11:42:11.859Z,28.84
2022-07-27T11:43:08.319Z,29.05
2022-07-27T11:44:08.309Z,28.60
2022-07-27T11:45:08.394Z,28.38
2022-07-27T11:46:08.405Z,28.28
2022-07-27T11:47:08.274Z,28.37
2022-07-27T11:48:08.257Z,28.71
2022-07-27T11:49:09.447Z,29.20
2022-07-27T11:50:08.413Z,29.10
2022-07-27T11:51:08.223Z,29.16
2022-07-27T11:52:08.294Z,29.57
2022-07-27T11:53:08.274Z,29.87
2022-07-27T11:54:08.228Z,30.13
2022-07-27T11:55:08.320Z,30.26
2022-07-27T11:56:08.219Z,29.86
2022-07-27T11:57:08.378Z,29.58
2022-07-27T11:58:08.228Z,29.32
2022-07-27T11:59:08.170Z,29.24
2022-07-27T12:00:08.289Z,29.20
2022-07-27T12:01:08.379Z,29.24
2022-07-27T12:02:08.306Z,29.06
2022-07-27T12:03:08.076Z,28.67
2022-07-27T12:04:08.084Z,28.56
2022-07-27T12:05:08.133Z,28.56
2022-07-27T12:06:08.104Z,28.18
2022-07-27T12:07:08.029Z,28.19
2022-07-27T12:08:08.224Z,28.18
2022-07-27T12:09:08.074Z,28.25
2022-07-27T12:10:08.223Z,28.25
2022-07-27T12:11:08.195Z,28.43
2022-07-27T12:12:08.318Z,28.57
2022-07-27T12:13:08.147Z,28.60
2022-07-27T12:14:07.951Z,28.78
2022-07-27T12:15:42.823Z,28.89
2022-07-27T12:16:07.908Z,28.92
2022-07-27T12:17:08.145Z,29.03
2022-07-27T12:18:07.896Z,29.10
2022-07-27T12:19:08.209Z,29.06
2022-07-27T12:20:07.898Z,29.06
2022-07-27T12:21:08.073Z,29.02
2022-07-27T12:22:07.925Z,28.84
2022-07-27T12:23:08.306Z,28.71
2022-07-27T12:24:07.904Z,28.56
2022-07-27T12:25:10.003Z,28.35
2022-07-27T12:26:07.977Z,28.30
2022-07-27T12:27:07.754Z,28.31
2022-07-27T12:28:07.764Z,28.31
2022-07-27T12:29:07.724Z,28.23
2022-07-27T12:30:07.924Z,28.03
2022-07-27T12:31:07.890Z,27.86
2022-07-27T12:32:07.799Z,27.66
2022-07-27T12:33:07.749Z,27.66
2022-07-27T12:34:07.900Z,27.78
2022-07-27T12:35:07.651Z,27.83
2022-07-27T12:36:07.945Z,27.91
2022-07-27T12:37:07.739Z,27.85
2022-07-27T12:38:07.669Z,27.81
2022-07-27T12:39:07.696Z,27.78
2022-07-27T12:40:07.593Z,27.79
2022-07-27T12:41:07.584Z,27.71
2022-07-27T12:42:07.554Z,27.58
2022-07-27T12:43:07.544Z,27.50
2022-07-27T12:44:07.594Z,27.40
2022-07-27T12:45:07.823Z,27.30
2022-07-27T12:46:07.644Z,27.33
2022-07-27T12:47:07.494Z,27.41
2022-07-27T12:48:07.516Z,27.33
2022-07-27T12:49:07.860Z,27.30
2022-07-27T12:50:07.588Z,27.35
2022-07-27T12:51:07.512Z,27.34
2022-07-27T12:52:07.578Z,27.30
2022-07-27T12:53:07.419Z,27.23
2022-07-27T12:54:07.398Z,27.22
2022-07-27T12:55:11.900Z,27.15
2022-07-27T12:56:07.469Z,27.10
2022-07-27T12:57:07.445Z,27.08